Time;durP1;ratioP1;P1;durP2;ratioP2;P2;SDS_P1;SDS_P2;PMS_P1;PMS_P2;Temp;Humidity;BMP_temperature;BMP_pressure;BME280_temperature;BME280_humidity;BME280_pressure;Samples;Min_cycle;Max_cycle;Signal;HPM_P1;HPM_P2
2022/06/11 00:01:43;;;;;;;1999.90;999.90;;;;;;;;;;5124856;27;20399;-70
2022/06/11 00:04:12;;;;;;;1999.90;999.90;;;;;;;;;;5126074;27;20416;-70
2022/06/11 00:06:41;;;;;;;1999.90;999.90;;;;;;;;;;5123677;27;20457;-70
2022/06/11 00:09:10;;;;;;;1999.90;999.90;;;;;;;;;;5122553;27;20484;-70
2022/06/11 00:11:39;;;;;;;1999.90;999.90;;;;;;;;;;5118274;27;20559;-70
2022/06/11 00:14:07;;;;;;;1999.90;999.90;;;;;;;;;;5124432;27;20489;-70
2022/06/11 00:16:35;;;;;;;1999.90;999.90;;;;;;;;;;5125710;27;20409;-70
2022/06/11 00:19:06;;;;;;;1999.90;999.90;;;;;;;;;;5126389;27;20390;-70
2022/06/11 00:21:37;;;;;;;1999.90;999.90;;;;;;;;;;5122869;27;20412;-70
2022/06/11 00:24:05;;;;;;;1999.90;999.90;;;;;;;;;;5120993;27;21334;-70
2022/06/11 00:26:32;;;;;;;1999.90;999.90;;;;;;;;;;5117036;27;20916;-70
2022/06/11 00:29:02;;;;;;;1999.90;999.90;;;;;;;;;;5124843;27;20389;-71
2022/06/11 00:31:30;;;;;;;1999.90;999.90;;;;;;;;;;5124377;27;20416;-70
2022/06/11 00:33:57;;;;;;;1999.90;999.90;;;;;;;;;;5125413;27;20441;-71
2022/06/11 00:36:25;;;;;;;1999.90;999.90;;;;;;;;;;5123005;27;20393;-70
2022/06/11 00:38:53;;;;;;;1999.90;999.90;;;;;;;;;;5120877;27;20535;-70
2022/06/11 00:41:23;;;;;;;1999.90;999.90;;;;;;;;;;5100846;27;20885;-71
2022/06/11 00:43:53;;;;;;;1999.90;999.90;;;;;;;;;;5124233;27;20405;-70
2022/06/11 00:46:41;;;;;;;1999.90;999.90;;;;;;;;;;5116762;27;20424;-70
2022/06/11 00:49:12;;;;;;;1999.90;999.90;;;;;;;;;;5126247;27;20416;-70
2022/06/11 00:51:40;;;;;;;1999.90;999.90;;;;;;;;;;5122313;27;20662;-70
2022/06/11 00:54:11;;;;;;;1999.90;999.90;;;;;;;;;;5123102;27;20463;-69
2022/06/11 00:56:41;;;;;;;1999.90;999.90;;;;;;;;;;5113634;27;20899;-69
2022/06/11 00:59:11;;;;;;;1999.90;999.90;;;;;;;;;;5119062;27;20397;-69
2022/06/11 01:01:41;;;;;;;1999.90;999.90;;;;;;;;;;5122405;27;20500;-70
2022/06/11 01:04:23;;;;;;;1999.90;999.90;;;;;;;;;;5111873;27;20888;-69
2022/06/11 01:06:53;;;;;;;1999.90;999.90;;;;;;;;;;5120055;27;20472;-69
2022/06/11 01:09:25;;;;;;;1999.90;999.90;;;;;;;;;;5117846;27;20390;-70
2022/06/11 01:12:07;;;;;;;1999.90;999.90;;;;;;;;;;5116285;27;21658;-70
2022/06/11 01:14:41;;;;;;;1999.90;999.90;;;;;;;;;;5122146;27;20386;-70
2022/06/11 01:17:15;;;;;;;1999.90;999.90;;;;;;;;;;5120777;27;20460;-70
2022/06/11 01:20:10;;;;;;;1999.90;999.90;;;;;;;;;;5120930;27;20390;-70
2022/06/11 01:22:49;;;;;;;1999.90;999.90;;;;;;;;;;5092818;27;20851;-70
2022/06/11 01:25:22;;;;;;;1999.90;999.90;;;;;;;;;;5121338;27;21059;-69
2022/06/11 01:28:00;;;;;;;1999.90;999.90;;;;;;;;;;5116450;27;21247;-70
2022/06/11 01:30:32;;;;;;;1999.90;999.90;;;;;;;;;;5116467;27;20408;-70
2022/06/11 01:33:07;;;;;;;1999.90;999.90;;;;;;;;;;5122886;27;20421;-70
2022/06/11 01:35:43;;;;;;;1999.90;999.90;;;;;;;;;;5117198;27;20409;-70
2022/06/11 01:38:15;;;;;;;1999.90;999.90;;;;;;;;;;5115411;27;20412;-71
2022/06/11 01:40:45;;;;;;;1999.90;999.90;;;;;;;;;;5120987;27;20401;-70
2022/06/11 01:43:19;;;;;;;1999.90;999.90;;;;;;;;;;5117518;27;20409;-68
2022/06/11 01:45:49;;;;;;;1999.90;999.90;;;;;;;;;;5116735;27;20427;-69
2022/06/11 01:48:22;;;;;;;1999.90;999.90;;;;;;;;;;5121282;27;20466;-69
2022/06/11 01:50:55;;;;;;;1999.90;999.90;;;;;;;;;;5122905;27;20930;-69
2022/06/11 01:53:42;;;;;;;1999.90;999.90;;;;;;;;;;5114496;27;20888;-69
2022/06/11 01:56:20;;;;;;;1999.90;999.90;;;;;;;;;;5111671;27;20874;-69
2022/06/11 01:58:57;;;;;;;1999.90;999.90;;;;;;;;;;5113288;27;20390;-70
2022/06/11 02:01:31;;;;;;;1999.90;999.90;;;;;;;;;;5122343;27;20390;-69
2022/06/11 02:04:02;;;;;;;1999.90;999.90;;;;;;;;;;5124634;27;20888;-69
2022/06/11 02:06:37;;;;;;;1999.90;999.90;;;;;;;;;;5114719;27;20393;-69
2022/06/11 02:09:10;;;;;;;1999.90;999.90;;;;;;;;;;5123934;27;20532;-69
2022/06/11 02:11:39;;;;;;;1999.90;999.90;;;;;;;;;;5115176;27;20510;-68
2022/06/11 02:14:12;;;;;;;1999.90;999.90;;;;;;;;;;5122314;27;20409;-69
2022/06/11 02:16:42;;;;;;;1999.90;999.90;;;;;;;;;;5125093;27;20394;-69
2022/06/11 02:19:12;;;;;;;1999.90;999.90;;;;;;;;;;5114880;27;20385;-70
2022/06/11 02:21:43;;;;;;;1999.90;999.90;;;;;;;;;;5124339;27;20393;-70
2022/06/11 02:24:12;;;;;;;1999.90;999.90;;;;;;;;;;5117624;27;20417;-69
2022/06/11 02:26:42;;;;;;;1999.90;999.90;;;;;;;;;;5112896;27;20933;-70
2022/06/11 02:29:11;;;;;;;1999.90;999.90;;;;;;;;;;5106326;27;20418;-69
2022/06/11 02:31:41;;;;;;;1999.90;999.90;;;;;;;;;;5117900;27;20488;-70
2022/06/11 02:34:11;;;;;;;1999.90;999.90;;;;;;;;;;5114917;27;20429;-69
2022/06/11 02:36:45;;;;;;;1999.90;999.90;;;;;;;;;;5127810;27;20399;-69
2022/06/11 02:39:13;;;;;;;1999.90;999.90;;;;;;;;;;5127220;27;21518;-69
2022/06/11 02:41:42;;;;;;;1999.90;999.90;;;;;;;;;;5127170;27;20888;-69
2022/06/11 02:44:09;;;;;;;1999.90;999.90;;;;;;;;;;5108386;27;20423;-68
2022/06/11 02:46:43;;;;;;;1999.90;999.90;;;;;;;;;;5116327;27;20414;-70
2022/06/11 02:49:15;;;;;;;1999.90;999.90;;;;;;;;;;5126222;27;20422;-70
2022/06/11 02:51:43;;;;;;;1999.90;999.90;;;;;;;;;;5120744;27;20406;-69
2022/06/11 02:54:11;;;;;;;1999.90;999.90;;;;;;;;;;5121466;27;20420;-70
2022/06/11 02:56:39;;;;;;;1999.90;999.90;;;;;;;;;;5126238;27;20381;-70
2022/06/11 02:59:07;;;;;;;1999.90;999.90;;;;;;;;;;5125398;27;20451;-69
2022/06/11 03:01:35;;;;;;;1999.90;999.90;;;;;;;;;;5121133;27;20679;-69
2022/06/11 03:04:03;;;;;;;1999.90;999.90;;;;;;;;;;5127059;27;20408;-72
2022/06/11 03:06:33;;;;;;;1999.90;999.90;;;;;;;;;;5108080;27;20920;-69
2022/06/11 03:09:00;;;;;;;1999.90;999.90;;;;;;;;;;5125087;27;20396;-70
2022/06/11 03:11:28;;;;;;;1999.90;999.90;;;;;;;;;;5123636;27;20409;-71
2022/06/11 03:13:56;;;;;;;1999.90;999.90;;;;;;;;;;5105247;27;21001;-70
2022/06/11 03:16:24;;;;;;;1999.90;999.90;;;;;;;;;;5130077;27;20399;-70
2022/06/11 03:18:52;;;;;;;1999.90;999.90;;;;;;;;;;5107447;27;20393;-70
2022/06/11 03:21:20;;;;;;;1999.90;999.90;;;;;;;;;;5128726;27;20532;-70
2022/06/11 03:23:49;;;;;;;1999.90;999.90;;;;;;;;;;5130346;27;20929;-70
2022/06/11 03:26:17;;;;;;;1999.90;999.90;;;;;;;;;;5133518;27;20366;-70
2022/06/11 03:28:44;;;;;;;1999.90;999.90;;;;;;;;;;5127791;27;20355;-68
2022/06/11 03:31:12;;;;;;;1999.90;999.90;;;;;;;;;;5135098;27;20358;-68
2022/06/11 03:33:41;;;;;;;1999.90;999.90;;;;;;;;;;5130627;27;20471;-70
2022/06/11 03:36:10;;;;;;;1999.90;999.90;;;;;;;;;;5133022;27;20455;-74
2022/06/11 03:38:38;;;;;;;1999.90;999.90;;;;;;;;;;5129769;27;20482;-69
2022/06/11 03:41:08;;;;;;;1999.90;999.90;;;;;;;;;;5114315;27;20392;-69
2022/06/11 03:43:36;;;;;;;1999.90;999.90;;;;;;;;;;5137204;27;21368;-70
2022/06/11 03:46:04;;;;;;;1999.90;999.90;;;;;;;;;;5108849;27;20886;-70
2022/06/11 03:48:33;;;;;;;1999.90;999.90;;;;;;;;;;5130634;27;20975;-70
2022/06/11 03:51:01;;;;;;;1999.90;999.90;;;;;;;;;;5111437;27;20389;-69
2022/06/11 03:53:29;;;;;;;1999.90;999.90;;;;;;;;;;5136221;27;20860;-70
2022/06/11 03:55:58;;;;;;;1999.90;999.90;;;;;;;;;;5108834;27;20409;-70
2022/06/11 03:58:27;;;;;;;1999.90;999.90;;;;;;;;;;5113735;27;22105;-71
2022/06/11 04:03:42;;;;;;;1999.90;999.90;;;;;;;;;;5108429;27;20882;-70
2022/06/11 04:06:10;;;;;;;1999.90;999.90;;;;;;;;;;5128860;27;20393;-69
2022/06/11 04:08:37;;;;;;;1999.90;999.90;;;;;;;;;;5107426;27;20397;-69
2022/06/11 04:11:06;;;;;;;1999.90;999.90;;;;;;;;;;5106217;27;20399;-69
2022/06/11 04:13:36;;;;;;;1999.90;999.90;;;;;;;;;;5108947;27;20394;-69
2022/06/11 04:16:04;;;;;;;1999.90;999.90;;;;;;;;;;5128099;27;20390;-70
2022/06/11 04:18:33;;;;;;;1999.90;999.90;;;;;;;;;;5106653;27;20479;-69
2022/06/11 04:21:01;;;;;;;1999.90;999.90;;;;;;;;;;5108162;27;20395;-69
2022/06/11 04:23:30;;;;;;;1999.90;999.90;;;;;;;;;;5111085;27;20382;-70
2022/06/11 04:25:58;;;;;;;1999.90;999.90;;;;;;;;;;5126107;27;20386;-70
2022/06/11 04:28:26;;;;;;;1999.90;999.90;;;;;;;;;;5118747;27;20404;-72
2022/06/11 04:30:56;;;;;;;1999.90;999.90;;;;;;;;;;5125550;27;20394;-70
2022/06/11 04:33:23;;;;;;;1999.90;999.90;;;;;;;;;;5124831;27;20416;-70
2022/06/11 04:35:51;;;;;;;1999.90;999.90;;;;;;;;;;5124412;27;20408;-70
2022/06/11 04:38:19;;;;;;;1999.90;999.90;;;;;;;;;;5124311;27;20389;-70
2022/06/11 04:40:48;;;;;;;1999.90;999.90;;;;;;;;;;5124344;27;20402;-70
2022/06/11 04:43:19;;;;;;;1999.90;999.90;;;;;;;;;;5123838;27;20449;-70
2022/06/11 04:45:47;;;;;;;1999.90;999.90;;;;;;;;;;5116838;27;20404;-70
2022/06/11 04:48:17;;;;;;;1999.90;999.90;;;;;;;;;;5118168;27;20394;-70
2022/06/11 04:50:44;;;;;;;1999.90;999.90;;;;;;;;;;5124709;27;20400;-71
2022/06/11 04:53:12;;;;;;;1999.90;999.90;;;;;;;;;;5125463;27;20409;-70
2022/06/11 04:55:40;;;;;;;1999.90;999.90;;;;;;;;;;5121974;27;20400;-69
2022/06/11 04:58:08;;;;;;;1999.90;999.90;;;;;;;;;;5124141;27;20433;-70
2022/06/11 05:00:36;;;;;;;1999.90;999.90;;;;;;;;;;5124277;27;20412;-69
2022/06/11 05:03:04;;;;;;;1999.90;999.90;;;;;;;;;;5126545;27;20861;-69
2022/06/11 05:05:34;;;;;;;1999.90;999.90;;;;;;;;;;5124786;27;20401;-68
2022/06/11 05:08:02;;;;;;;1999.90;999.90;;;;;;;;;;5124558;27;20492;-69
2022/06/11 05:10:31;;;;;;;1999.90;999.90;;;;;;;;;;5122731;27;20396;-69
2022/06/11 05:13:06;;;;;;;1999.90;999.90;;;;;;;;;;5117872;27;21012;-72
2022/06/11 05:15:35;;;;;;;1999.90;999.90;;;;;;;;;;5122007;27;20432;-70
2022/06/11 05:18:02;;;;;;;1999.90;999.90;;;;;;;;;;5116473;27;20405;-69
2022/06/11 05:20:30;;;;;;;1999.90;999.90;;;;;;;;;;5121984;27;20409;-69
2022/06/11 05:23:00;;;;;;;1999.90;999.90;;;;;;;;;;5122239;27;20423;-69
2022/06/11 05:25:27;;;;;;;1999.90;999.90;;;;;;;;;;5124655;27;20409;-69
2022/06/11 05:27:55;;;;;;;1999.90;999.90;;;;;;;;;;5124045;27;20867;-69
2022/06/11 05:30:24;;;;;;;1999.90;999.90;;;;;;;;;;5128562;27;20395;-69
2022/06/11 05:32:52;;;;;;;1999.90;999.90;;;;;;;;;;5125813;27;20412;-68
2022/06/11 05:35:26;;;;;;;1999.90;999.90;;;;;;;;;;5117860;27;20397;-68
2022/06/11 05:37:57;;;;;;;1999.90;999.90;;;;;;;;;;5124699;27;20424;-69
2022/06/11 05:40:28;;;;;;;1999.90;999.90;;;;;;;;;;5114071;27;20548;-68
2022/06/11 05:42:56;;;;;;;1999.90;999.90;;;;;;;;;;5123182;27;20403;-68
2022/06/11 05:45:25;;;;;;;1999.90;999.90;;;;;;;;;;5123815;27;20387;-69
2022/06/11 05:47:54;;;;;;;1999.90;999.90;;;;;;;;;;5119226;27;20496;-69
2022/06/11 05:50:24;;;;;;;1999.90;999.90;;;;;;;;;;5122857;27;20419;-69
2022/06/11 05:52:52;;;;;;;1999.90;999.90;;;;;;;;;;5124968;27;20428;-69
2022/06/11 05:55:23;;;;;;;1999.90;999.90;;;;;;;;;;5121628;27;21229;-69
2022/06/11 05:57:52;;;;;;;1999.90;999.90;;;;;;;;;;5124068;27;21265;-69
2022/06/11 06:00:22;;;;;;;1999.90;999.90;;;;;;;;;;5115726;27;20408;-69
2022/06/11 06:02:50;;;;;;;1999.90;999.90;;;;;;;;;;5114388;27;20406;-69
2022/06/11 06:05:19;;;;;;;1999.90;999.90;;;;;;;;;;5116329;27;20872;-69
2022/06/11 06:07:52;;;;;;;1999.90;999.90;;;;;;;;;;5118626;27;20409;-69
2022/06/11 06:10:20;;;;;;;1999.90;999.90;;;;;;;;;;5118976;27;20813;-69
2022/06/11 06:12:47;;;;;;;1999.90;999.90;;;;;;;;;;5114621;27;20894;-68
2022/06/11 06:15:18;;;;;;;1999.90;999.90;;;;;;;;;;5122102;27;20388;-68
2022/06/11 06:17:48;;;;;;;1999.90;999.90;;;;;;;;;;5123199;27;20418;-68
2022/06/11 06:20:16;;;;;;;1999.90;999.90;;;;;;;;;;5120122;27;20398;-69
2022/06/11 06:22:44;;;;;;;1999.90;999.90;;;;;;;;;;5113062;27;20381;-71
2022/06/11 06:25:13;;;;;;;1999.90;999.90;;;;;;;;;;5117718;27;20412;-70
2022/06/11 06:27:41;;;;;;;1999.90;999.90;;;;;;;;;;5118810;27;20476;-70
2022/06/11 06:30:17;;;;;;;1999.90;999.90;;;;;;;;;;5114936;27;20952;-67
2022/06/11 06:32:44;;;;;;;1999.90;999.90;;;;;;;;;;5122924;27;20428;-69
2022/06/11 06:35:12;;;;;;;1999.90;999.90;;;;;;;;;;5121654;27;20391;-67
2022/06/11 06:37:40;;;;;;;1999.90;999.90;;;;;;;;;;5118062;27;20828;-69
2022/06/11 06:40:08;;;;;;;1999.90;999.90;;;;;;;;;;5118203;27;20386;-69
2022/06/11 06:42:36;;;;;;;1999.90;999.90;;;;;;;;;;5119610;27;20582;-69
2022/06/11 06:45:04;;;;;;;1999.90;999.90;;;;;;;;;;5120665;27;20408;-69
2022/06/11 06:47:33;;;;;;;1999.90;999.90;;;;;;;;;;5119813;27;20402;-70
2022/06/11 06:50:01;;;;;;;1999.90;999.90;;;;;;;;;;5119344;27;20405;-69
2022/06/11 06:52:29;;;;;;;1999.90;999.90;;;;;;;;;;5117547;27;20761;-69
2022/06/11 06:54:57;;;;;;;1999.90;999.90;;;;;;;;;;5123331;27;20439;-69
2022/06/11 06:57:24;;;;;;;1999.90;999.90;;;;;;;;;;5123819;27;20417;-69
2022/06/11 06:59:52;;;;;;;1999.90;999.90;;;;;;;;;;5120294;27;20484;-69
2022/06/11 07:02:20;;;;;;;1999.90;999.90;;;;;;;;;;5121892;27;20884;-68
2022/06/11 07:04:49;;;;;;;1999.90;999.90;;;;;;;;;;5126401;27;20400;-69
2022/06/11 07:07:18;;;;;;;1999.90;999.90;;;;;;;;;;5120935;27;20436;-69
2022/06/11 07:09:52;;;;;;;1999.90;999.90;;;;;;;;;;5120525;27;20912;-69
2022/06/11 07:12:20;;;;;;;1999.90;999.90;;;;;;;;;;5123345;27;20405;-69
2022/06/11 07:14:48;;;;;;;1999.90;999.90;;;;;;;;;;5122649;27;20376;-69
2022/06/11 07:17:18;;;;;;;1999.90;999.90;;;;;;;;;;5126917;27;20394;-69
2022/06/11 07:19:48;;;;;;;1999.90;999.90;;;;;;;;;;5122451;27;20887;-69
2022/06/11 07:22:21;;;;;;;1999.90;999.90;;;;;;;;;;5116882;27;20405;-68
2022/06/11 07:24:49;;;;;;;1999.90;999.90;;;;;;;;;;5120329;27;20393;-70
2022/06/11 07:27:18;;;;;;;1999.90;999.90;;;;;;;;;;5119692;27;20382;-69
2022/06/11 07:29:49;;;;;;;1999.90;999.90;;;;;;;;;;5121736;27;20389;-69
2022/06/11 07:32:17;;;;;;;1999.90;999.90;;;;;;;;;;5125632;27;20909;-69
2022/06/11 07:34:46;;;;;;;1999.90;999.90;;;;;;;;;;5117062;27;20395;-69
2022/06/11 07:37:14;;;;;;;1999.90;999.90;;;;;;;;;;5102900;27;20550;-70
2022/06/11 07:39:43;;;;;;;1999.90;999.90;;;;;;;;;;5119359;27;20398;-70
2022/06/11 07:42:11;;;;;;;1999.90;999.90;;;;;;;;;;5112897;27;20416;-70
2022/06/11 07:44:39;;;;;;;1999.90;999.90;;;;;;;;;;5125709;27;20424;-70
2022/06/11 07:47:07;;;;;;;1999.90;999.90;;;;;;;;;;5123486;27;21547;-70
2022/06/11 07:49:35;;;;;;;1999.90;999.90;;;;;;;;;;5123949;27;20397;-70
2022/06/11 07:52:03;;;;;;;1999.90;999.90;;;;;;;;;;5126090;27;20393;-70
2022/06/11 07:54:33;;;;;;;1999.90;999.90;;;;;;;;;;5119393;27;20390;-70
2022/06/11 07:57:02;;;;;;;1999.90;999.90;;;;;;;;;;5123697;27;21354;-70
2022/06/11 07:59:36;;;;;;;1999.90;999.90;;;;;;;;;;5116941;27;20404;-70
2022/06/11 08:02:04;;;;;;;1999.90;999.90;;;;;;;;;;5128967;27;20405;-70
2022/06/11 08:04:32;;;;;;;1999.90;999.90;;;;;;;;;;5129578;27;20390;-70
2022/06/11 08:06:59;;;;;;;1999.90;999.90;;;;;;;;;;5122244;27;20494;-70
2022/06/11 08:09:27;;;;;;;1999.90;999.90;;;;;;;;;;5119134;27;20393;-70
2022/06/11 08:11:55;;;;;;;1999.90;999.90;;;;;;;;;;5121254;27;20405;-69
2022/06/11 08:14:25;;;;;;;1999.90;999.90;;;;;;;;;;5119200;27;20420;-69
2022/06/11 08:16:52;;;;;;;1999.90;999.90;;;;;;;;;;5121755;27;20435;-69
2022/06/11 08:19:21;;;;;;;1999.90;999.90;;;;;;;;;;5114335;27;20398;-69
2022/06/11 08:21:49;;;;;;;1999.90;999.90;;;;;;;;;;5091362;27;20945;-69
2022/06/11 08:24:17;;;;;;;1999.90;999.90;;;;;;;;;;5108793;27;20392;-68
2022/06/11 08:26:45;;;;;;;1999.90;999.90;;;;;;;;;;5117018;27;20583;-68
2022/06/11 08:29:13;;;;;;;1999.90;999.90;;;;;;;;;;5114174;27;20877;-69
2022/06/11 08:31:42;;;;;;;1999.90;999.90;;;;;;;;;;5121375;27;20413;-69
2022/06/11 08:34:10;;;;;;;1999.90;999.90;;;;;;;;;;5116277;27;20399;-69
2022/06/11 08:36:38;;;;;;;1999.90;999.90;;;;;;;;;;5109564;27;20390;-69
2022/06/11 08:39:06;;;;;;;1999.90;999.90;;;;;;;;;;5112811;27;20907;-69
2022/06/11 08:41:35;;;;;;;1999.90;999.90;;;;;;;;;;5115844;27;20405;-69
2022/06/11 08:44:05;;;;;;;1999.90;999.90;;;;;;;;;;5125716;27;20451;-69
2022/06/11 08:46:34;;;;;;;1999.90;999.90;;;;;;;;;;5117746;27;20436;-68
2022/06/11 08:49:10;;;;;;;1999.90;999.90;;;;;;;;;;5120454;27;20480;-69
2022/06/11 08:51:40;;;;;;;1999.90;999.90;;;;;;;;;;5114622;27;20509;-69
2022/06/11 08:54:10;;;;;;;1999.90;999.90;;;;;;;;;;5116087;27;20401;-69
2022/06/11 08:56:40;;;;;;;1999.90;999.90;;;;;;;;;;5117978;27;20432;-69
2022/06/11 08:59:27;;;;;;;1999.90;999.90;;;;;;;;;;5120780;27;20428;-68
2022/06/11 09:01:59;;;;;;;1999.90;999.90;;;;;;;;;;5116151;27;20393;-68
2022/06/11 09:04:48;;;;;;;1999.90;999.90;;;;;;;;;;5111152;27;20400;-69
2022/06/11 09:07:22;;;;;;;1999.90;999.90;;;;;;;;;;5106723;27;20459;-69
2022/06/11 09:10:02;;;;;;;1999.90;999.90;;;;;;;;;;5117497;27;20382;-70
2022/06/11 09:12:43;;;;;;;1999.90;999.90;;;;;;;;;;5110373;27;20971;-70
2022/06/11 09:15:18;;;;;;;1999.90;999.90;;;;;;;;;;5116141;27;20405;-69
2022/06/11 09:17:57;;;;;;;1999.90;999.90;;;;;;;;;;5108980;27;33118;-69
2022/06/11 09:20:31;;;;;;;1999.90;999.90;;;;;;;;;;5115997;27;22618;-70
2022/06/11 09:23:17;;;;;;;1999.90;999.90;;;;;;;;;;5111428;27;20422;-69
2022/06/11 09:25:53;;;;;;;1999.90;999.90;;;;;;;;;;5115393;27;20389;-72
2022/06/11 09:28:28;;;;;;;1999.90;999.90;;;;;;;;;;5117237;27;20406;-69
2022/06/11 09:30:59;;;;;;;1999.90;999.90;;;;;;;;;;5108644;27;20730;-68
2022/06/11 09:33:29;;;;;;;1999.90;999.90;;;;;;;;;;5110853;27;20320;-76
2022/06/11 09:35:59;;;;;;;1999.90;999.90;;;;;;;;;;5110000;27;20230;-70
2022/06/11 09:38:30;;;;;;;1999.90;999.90;;;;;;;;;;5111354;27;20233;-70
2022/06/11 09:41:08;;;;;;;1999.90;999.90;;;;;;;;;;5118243;27;20206;-71
2022/06/11 09:43:40;;;;;;;1999.90;999.90;;;;;;;;;;5110639;27;21467;-70
2022/06/11 09:46:11;;;;;;;1999.90;999.90;;;;;;;;;;5112067;27;20226;-70
2022/06/11 09:48:45;;;;;;;1999.90;999.90;;;;;;;;;;5116584;27;20233;-70
2022/06/11 09:51:18;;;;;;;1999.90;999.90;;;;;;;;;;5103260;27;22260;-69
2022/06/11 09:53:50;;;;;;;1999.90;999.90;;;;;;;;;;5119999;27;22498;-69
2022/06/11 09:56:22;;;;;;;1999.90;999.90;;;;;;;;;;5121789;27;20230;-68
2022/06/11 09:58:53;;;;;;;1999.90;999.90;;;;;;;;;;5123342;27;20249;-69
2022/06/11 10:01:28;;;;;;;1999.90;999.90;;;;;;;;;;5119340;27;20214;-67
2022/06/11 10:03:58;;;;;;;1999.90;999.90;;;;;;;;;;5122987;27;20268;-68
2022/06/11 10:06:27;;;;;;;1999.90;999.90;;;;;;;;;;5122717;27;20222;-66
2022/06/11 10:08:57;;;;;;;1999.90;999.90;;;;;;;;;;5120637;27;20237;-66
2022/06/11 10:11:28;;;;;;;1999.90;999.90;;;;;;;;;;5121623;27;20455;-70
2022/06/11 10:14:28;;;;;;;1999.90;999.90;;;;;;;;;;5123141;27;20502;-69
2022/06/11 10:16:48;;;;;;;1999.90;999.90;;;;;;;;;;5123638;27;20236;-69
2022/06/11 10:19:21;;;;;;;1999.90;999.90;;;;;;;;;;5123193;27;20233;-70
2022/06/11 10:21:52;;;;;;;1999.90;999.90;;;;;;;;;;5124629;27;20217;-69
2022/06/11 10:24:21;;;;;;;1999.90;999.90;;;;;;;;;;5125947;27;20229;-68
2022/06/11 10:26:52;;;;;;;1999.90;999.90;;;;;;;;;;5116135;27;20726;-69
2022/06/11 10:29:21;;;;;;;1999.90;999.90;;;;;;;;;;5123074;27;20232;-69
2022/06/11 10:31:53;;;;;;;1999.90;999.90;;;;;;;;;;5124519;27;20221;-70
2022/06/11 10:34:31;;;;;;;1999.90;999.90;;;;;;;;;;5126844;27;20230;-69
2022/06/11 10:37:02;;;;;;;1999.90;999.90;;;;;;;;;;5125587;27;20802;-69
2022/06/11 10:39:30;;;;;;;1999.90;999.90;;;;;;;;;;5127547;27;20497;-69
2022/06/11 10:42:04;;;;;;;1999.90;999.90;;;;;;;;;;5128005;27;20308;-70
2022/06/11 10:44:36;;;;;;;1999.90;999.90;;;;;;;;;;5129097;27;20997;-70
2022/06/11 10:47:11;;;;;;;1999.90;999.90;;;;;;;;;;5128218;27;20365;-70
2022/06/11 10:49:39;;;;;;;1999.90;999.90;;;;;;;;;;5118548;27;20359;-70
2022/06/11 10:52:15;;;;;;;1999.90;999.90;;;;;;;;;;5121308;27;20218;-70
2022/06/11 10:54:43;;;;;;;1999.90;999.90;;;;;;;;;;5133017;27;20229;-69
2022/06/11 10:57:16;;;;;;;1999.90;999.90;;;;;;;;;;5123780;27;20234;-69
2022/06/11 10:59:45;;;;;;;1999.90;999.90;;;;;;;;;;5121862;27;21047;-70
2022/06/11 11:02:19;;;;;;;1999.90;999.90;;;;;;;;;;5120395;27;20317;-69
2022/06/11 11:04:55;;;;;;;1999.90;999.90;;;;;;;;;;5108809;27;20941;-69
2022/06/11 11:07:24;;;;;;;1999.90;999.90;;;;;;;;;;5112378;27;20221;-69
2022/06/11 11:09:57;;;;;;;1999.90;999.90;;;;;;;;;;5116241;27;20233;-69
2022/06/11 11:12:29;;;;;;;1999.90;999.90;;;;;;;;;;5114927;27;20268;-70
2022/06/11 11:14:59;;;;;;;1999.90;999.90;;;;;;;;;;5144173;27;20226;-70
2022/06/11 11:17:28;;;;;;;1999.90;999.90;;;;;;;;;;5123637;27;20222;-68
2022/06/11 11:22:52;;;;;;;1999.90;999.90;;;;;;;;;;5116660;27;20225;-68
2022/06/11 11:25:25;;;;;;;1999.90;999.90;;;;;;;;;;5116277;27;20240;-69
2022/06/11 11:27:54;;;;;;;1999.90;999.90;;;;;;;;;;5120190;27;20313;-68
2022/06/11 11:30:27;;;;;;;1999.90;999.90;;;;;;;;;;5125407;27;20266;-69
2022/06/11 11:32:55;;;;;;;1999.90;999.90;;;;;;;;;;5121653;27;20225;-70
2022/06/11 11:35:26;;;;;;;1999.90;999.90;;;;;;;;;;5107604;27;20245;-69
2022/06/11 11:37:59;;;;;;;1999.90;999.90;;;;;;;;;;5111705;27;20233;-69
2022/06/11 11:40:29;;;;;;;1999.90;999.90;;;;;;;;;;5137210;27;20722;-69
2022/06/11 11:42:59;;;;;;;1999.90;999.90;;;;;;;;;;5114618;27;20222;-69
2022/06/11 11:45:29;;;;;;;1999.90;999.90;;;;;;;;;;5117439;27;20233;-69
2022/06/11 11:48:02;;;;;;;1999.90;999.90;;;;;;;;;;5118890;27;20713;-70
2022/06/11 11:50:35;;;;;;;1999.90;999.90;;;;;;;;;;5122912;27;20739;-71
2022/06/11 11:53:04;;;;;;;1999.90;999.90;;;;;;;;;;5122515;27;20222;-71
2022/06/11 11:55:33;;;;;;;1999.90;999.90;;;;;;;;;;5123399;27;20819;-71
2022/06/11 11:58:04;;;;;;;1999.90;999.90;;;;;;;;;;5117663;27;20232;-71
2022/06/11 12:00:33;;;;;;;1999.90;999.90;;;;;;;;;;5093961;27;20307;-71
2022/06/11 12:03:03;;;;;;;1999.90;999.90;;;;;;;;;;5116510;27;20636;-71
2022/06/11 12:05:32;;;;;;;1999.90;999.90;;;;;;;;;;5119682;27;20325;-70
2022/06/11 12:08:01;;;;;;;1999.90;999.90;;;;;;;;;;5101001;27;20735;-70
2022/06/11 12:10:31;;;;;;;1999.90;999.90;;;;;;;;;;5097139;27;21079;-70
2022/06/11 12:12:59;;;;;;;1999.90;999.90;;;;;;;;;;5102154;27;20271;-70
2022/06/11 12:15:29;;;;;;;1999.90;999.90;;;;;;;;;;5103918;27;21101;-69
2022/06/11 12:18:00;;;;;;;1999.90;999.90;;;;;;;;;;5103409;27;20249;-69
2022/06/11 12:20:33;;;;;;;1999.90;999.90;;;;;;;;;;5113862;27;20229;-70
2022/06/11 12:23:03;;;;;;;1999.90;999.90;;;;;;;;;;5097671;27;20222;-70
2022/06/11 12:25:36;;;;;;;1999.90;999.90;;;;;;;;;;5122619;27;20668;-69
2022/06/11 12:28:04;;;;;;;1999.90;999.90;;;;;;;;;;5102534;27;20240;-70
2022/06/11 12:30:34;;;;;;;1999.90;999.90;;;;;;;;;;5059021;27;20234;-70
2022/06/11 12:33:02;;;;;;;1999.90;999.90;;;;;;;;;;5076698;27;20227;-70
2022/06/11 12:35:32;;;;;;;1999.90;999.90;;;;;;;;;;5100681;27;20234;-69
2022/06/11 12:38:03;;;;;;;1999.90;999.90;;;;;;;;;;5097500;27;20292;-68
2022/06/11 12:40:33;;;;;;;1999.90;999.90;;;;;;;;;;5079992;28;21554;-69
2022/06/11 12:43:07;;;;;;;1999.90;999.90;;;;;;;;;;5099351;27;20232;-70
2022/06/11 12:45:38;;;;;;;1999.90;999.90;;;;;;;;;;5102186;27;21961;-70
2022/06/11 12:48:26;;;;;;;1999.90;999.90;;;;;;;;;;5087624;28;20230;-70
2022/06/11 12:50:58;;;;;;;1999.90;999.90;;;;;;;;;;5084529;27;20234;-71
2022/06/11 12:53:34;;;;;;;1999.90;999.90;;;;;;;;;;5097166;27;20316;-70
2022/06/11 12:56:06;;;;;;;1999.90;999.90;;;;;;;;;;5082982;27;20230;-71
2022/06/11 12:58:40;;;;;;;1999.90;999.90;;;;;;;;;;5085687;28;20347;-69
2022/06/11 13:01:13;;;;;;;1999.90;999.90;;;;;;;;;;5086808;28;21138;-71
2022/06/11 13:03:52;;;;;;;1999.90;999.90;;;;;;;;;;5084612;28;20226;-70
2022/06/11 13:06:27;;;;;;;1999.90;999.90;;;;;;;;;;5104546;27;20226;-68
2022/06/11 13:09:02;;;;;;;1999.90;999.90;;;;;;;;;;5100741;27;20237;-67
2022/06/11 13:11:35;;;;;;;1999.90;999.90;;;;;;;;;;5103518;27;20228;-66
2022/06/11 13:14:22;;;;;;;1999.90;999.90;;;;;;;;;;5086783;27;20253;-68
2022/06/11 13:16:57;;;;;;;1999.90;999.90;;;;;;;;;;5087697;28;20230;-66
2022/06/11 13:19:33;;;;;;;1999.90;999.90;;;;;;;;;;5066488;28;20227;-67
2022/06/11 13:22:05;;;;;;;1999.90;999.90;;;;;;;;;;5084550;28;20676;-67
2022/06/11 13:24:37;;;;;;;1999.90;999.90;;;;;;;;;;5085146;27;21042;-68
2022/06/11 13:27:08;;;;;;;1999.90;999.90;;;;;;;;;;5099216;27;20230;-66
2022/06/11 13:29:43;;;;;;;1999.90;999.90;;;;;;;;;;5085366;28;20238;-69
2022/06/11 13:32:17;;;;;;;1999.90;999.90;;;;;;;;;;5084769;28;20221;-65
2022/06/11 13:34:50;;;;;;;1999.90;999.90;;;;;;;;;;5084508;28;20222;-67
2022/06/11 13:37:23;;;;;;;1999.90;999.90;;;;;;;;;;5086847;28;20222;-71
2022/06/11 13:39:56;;;;;;;1999.90;999.90;;;;;;;;;;5082030;27;20241;-69
2022/06/11 13:42:28;;;;;;;1999.90;999.90;;;;;;;;;;5086796;27;20299;-67
2022/06/11 13:45:06;;;;;;;1999.90;999.90;;;;;;;;;;5092248;27;20380;-71
2022/06/11 13:47:39;;;;;;;1999.90;999.90;;;;;;;;;;5084691;27;20322;-71
2022/06/11 13:50:14;;;;;;;1999.90;999.90;;;;;;;;;;5084836;27;20328;-71
2022/06/11 13:55:33;;;;;;;1999.90;999.90;;;;;;;;;;5099332;27;20427;-71
2022/06/11 13:58:16;;;;;;;1999.90;999.90;;;;;;;;;;5084599;28;21066;-72
2022/06/11 14:01:00;;;;;;;1999.90;999.90;;;;;;;;;;5082635;28;20393;-71
2022/06/11 14:03:54;;;;;;;1999.90;999.90;;;;;;;;;;5077769;27;20237;-72
2022/06/11 14:06:23;;;;;;;1999.90;999.90;;;;;;;;;;5100711;27;20880;-71
2022/06/11 14:09:06;;;;;;;1999.90;999.90;;;;;;;;;;5081803;28;20315;-71
2022/06/11 14:11:44;;;;;;;1999.90;999.90;;;;;;;;;;5084439;28;20765;-71